createdAt,value
2023-04-26T00:00:01.845Z,1.10
2023-04-26T00:05:04.452Z,1.30
2023-04-26T00:10:07.310Z,1.60
2023-04-26T00:15:09.795Z,1.17
2023-04-26T00:20:13.674Z,1.20
2023-04-26T00:25:15.768Z,0.90
2023-04-26T00:30:17.936Z,1.23
2023-04-26T00:35:20.396Z,1.20
2023-04-26T00:40:22.295Z,1.30
2023-04-26T00:45:24.489Z,1.27
2023-04-26T00:50:26.516Z,1.20
2023-04-26T00:55:28.683Z,1.10
2023-04-26T01:00:30.576Z,1.13
2023-04-26T01:05:32.617Z,1.10
2023-04-26T01:10:36.017Z,1.10
2023-04-26T01:15:38.450Z,1.30
2023-04-26T01:20:41.786Z,1.03
2023-04-26T01:25:43.854Z,0.97
2023-04-26T01:30:46.061Z,1.30
2023-04-26T01:35:48.004Z,1.33
2023-04-26T01:40:49.990Z,1.17
2023-04-26T01:45:51.989Z,1.50
2023-04-26T01:51:05.898Z,1.00
2023-04-26T01:56:08.671Z,1.53
2023-04-26T02:01:12.549Z,1.07
2023-04-26T02:06:14.525Z,1.30
2023-04-26T02:11:16.643Z,1.30
2023-04-26T02:16:18.703Z,1.80
2023-04-26T02:21:21.620Z,1.33
2023-04-26T02:26:23.651Z,1.60
2023-04-26T02:31:25.937Z,1.43
2023-04-26T02:36:27.857Z,1.53
2023-04-26T02:41:33.117Z,1.63
2023-04-26T02:46:35.184Z,1.80
2023-04-26T02:51:37.314Z,1.20
2023-04-26T02:56:39.290Z,1.97
2023-04-26T03:01:41.304Z,1.47
2023-04-26T03:06:43.434Z,1.43
2023-04-26T03:11:46.465Z,1.60
2023-04-26T03:16:49.926Z,1.67
2023-04-26T03:21:52.100Z,1.30
2023-04-26T03:26:54.146Z,1.40
2023-04-26T03:31:56.367Z,2.03
2023-04-26T03:36:58.660Z,1.50
2023-04-26T03:42:01.136Z,1.50
2023-04-26T03:47:05.224Z,1.20
2023-04-26T03:52:07.672Z,1.37
2023-04-26T03:57:10.551Z,1.40
2023-04-26T04:02:12.598Z,1.70
2023-04-26T04:07:16.618Z,1.53
2023-04-26T04:12:18.743Z,1.97
2023-04-26T04:17:20.882Z,1.40
2023-04-26T04:22:23.107Z,1.67
2023-04-26T04:27:25.562Z,1.90
2023-04-26T04:32:27.733Z,2.07
2023-04-26T04:37:29.901Z,1.87
2023-04-26T04:42:32.382Z,2.13
2023-04-26T04:47:37.860Z,2.90
2023-04-26T04:52:40.020Z,2.27
2023-04-26T04:57:46.412Z,2.33
2023-04-26T05:02:51.861Z,2.40
2023-04-26T05:07:54.315Z,2.27
2023-04-26T05:12:56.770Z,2.97
2023-04-26T05:17:59.698Z,2.80
2023-04-26T05:23:02.060Z,2.57
2023-04-26T05:28:04.283Z,3.10
2023-04-26T05:33:13.840Z,2.00
2023-04-26T05:38:22.877Z,2.60
2023-04-26T05:43:27.860Z,1.97
2023-04-26T05:48:30.469Z,2.17
2023-04-26T05:53:34.090Z,2.17
2023-04-26T05:58:37.222Z,2.40
2023-04-26T06:03:40.762Z,2.13
2023-04-26T06:08:44.329Z,2.43
2023-04-26T06:13:47.746Z,3.10
2023-04-26T06:18:50.248Z,2.83
2023-04-26T06:23:52.669Z,2.97
2023-04-26T06:28:56.494Z,2.87
2023-04-26T06:33:59.251Z,3.10
2023-04-26T06:39:01.506Z,2.20
2023-04-26T06:44:03.670Z,2.60
2023-04-26T06:49:06.948Z,2.50
2023-04-26T06:54:09.140Z,2.50
2023-04-26T06:59:11.168Z,3.00
2023-04-26T07:04:16.833Z,3.07
2023-04-26T07:09:18.810Z,2.23
2023-04-26T07:14:21.103Z,2.03
2023-04-26T07:19:23.442Z,2.33
2023-04-26T07:24:25.866Z,2.53
2023-04-26T07:29:27.897Z,2.40
2023-04-26T07:34:29.849Z,2.30
2023-04-26T07:39:32.002Z,2.83
2023-04-26T07:44:34.219Z,2.70
2023-04-26T07:49:36.531Z,1.97
2023-04-26T07:54:40.342Z,2.10
2023-04-26T07:59:42.445Z,1.90
2023-04-26T08:04:55.522Z,1.90
2023-04-26T08:09:57.754Z,1.93
2023-04-26T08:15:02.434Z,1.70
2023-04-26T08:20:09.877Z,1.80
2023-04-26T08:25:12.660Z,2.77
2023-04-26T08:30:14.937Z,1.97
2023-04-26T08:35:19.728Z,1.97
2023-04-26T08:40:27.198Z,2.10
2023-04-26T08:45:29.107Z,2.40
2023-04-26T08:50:33.653Z,1.87
2023-04-26T08:55:36.839Z,1.87
2023-04-26T09:00:39.372Z,2.10
2023-04-26T09:05:44.297Z,2.10
2023-04-26T09:10:46.685Z,2.30
2023-04-26T09:15:50.261Z,2.30
2023-04-26T09:21:07.136Z,2.10
2023-04-26T09:26:17.401Z,1.50
2023-04-26T09:31:40.402Z,1.90
2023-04-26T09:36:58.517Z,1.80
2023-04-26T09:42:02.015Z,1.77
2023-04-26T09:47:10.704Z,1.70
2023-04-26T09:52:12.838Z,1.53
2023-04-26T09:57:17.109Z,1.70
2023-04-26T10:02:24.536Z,1.80
2023-04-26T10:07:26.794Z,1.30
2023-04-26T10:12:29.353Z,1.53
2023-04-26T10:17:32.737Z,1.70
2023-04-26T10:22:44.810Z,2.23
2023-04-26T10:27:46.934Z,1.17
2023-04-26T10:32:58.227Z,1.30
2023-04-26T10:38:00.257Z,1.80
2023-04-26T10:43:11.843Z,1.30
2023-04-26T10:48:22.038Z,1.30
2023-04-26T10:53:25.900Z,1.47
2023-04-26T10:58:32.998Z,1.90
2023-04-26T11:03:35.506Z,1.60
2023-04-26T11:08:38.705Z,1.27
2023-04-26T11:13:42.263Z,1.13
2023-04-26T11:18:46.687Z,1.30
2023-04-26T11:23:55.285Z,1.10
2023-04-26T11:28:57.519Z,1.47
2023-04-26T11:34:05.852Z,1.27
2023-04-26T11:39:08.028Z,1.43
2023-04-26T11:44:12.470Z,1.07
2023-04-26T11:49:16.306Z,1.50
2023-04-26T11:54:35.869Z,1.20
2023-04-26T11:59:37.901Z,1.43
2023-04-26T12:04:41.473Z,1.10
2023-04-26T12:09:43.960Z,1.13
2023-04-26T12:14:47.760Z,1.20
2023-04-26T12:19:50.743Z,1.80
2023-04-26T12:25:05.434Z,1.13
2023-04-26T12:30:08.905Z,1.00
2023-04-26T12:35:10.973Z,1.10
2023-04-26T12:40:13.540Z,1.20
2023-04-26T12:45:16.080Z,1.47
2023-04-26T12:50:18.838Z,1.37
2023-04-26T12:55:21.344Z,1.03
2023-04-26T13:00:23.479Z,1.70
2023-04-26T13:05:25.733Z,1.40
2023-04-26T13:10:28.172Z,1.17
2023-04-26T13:15:30.395Z,1.30
2023-04-26T13:20:32.612Z,1.00
2023-04-26T13:25:34.640Z,1.03
2023-04-26T13:30:36.657Z,1.40
2023-04-26T13:35:38.652Z,1.67
2023-04-26T13:40:40.825Z,1.00
2023-04-26T13:45:43.238Z,1.00
2023-04-26T13:50:45.208Z,0.80
2023-04-26T13:55:47.159Z,1.13
2023-04-26T14:00:49.138Z,0.93
2023-04-26T14:05:51.291Z,1.53
2023-04-26T14:10:53.682Z,1.67
2023-04-26T14:15:57.392Z,1.00
2023-04-26T14:20:59.435Z,1.60
2023-04-26T14:26:01.744Z,1.30
2023-04-26T14:31:03.935Z,1.00
2023-04-26T14:36:06.308Z,1.10
2023-04-26T14:41:08.296Z,1.13
2023-04-26T14:46:10.318Z,1.07
2023-04-26T14:51:12.395Z,1.70
2023-04-26T14:56:14.402Z,0.93
2023-04-26T15:01:16.519Z,1.10
2023-04-26T15:06:18.747Z,1.40
2023-04-26T15:11:21.142Z,1.07
2023-04-26T15:16:23.384Z,1.27
2023-04-26T15:21:25.392Z,1.00
2023-04-26T15:26:30.885Z,1.40
2023-04-26T15:31:34.181Z,1.00
2023-04-26T15:36:36.552Z,1.00
2023-04-26T15:41:39.114Z,1.40
2023-04-26T15:46:41.238Z,1.17
2023-04-26T15:51:43.811Z,1.10
2023-04-26T15:56:48.975Z,1.40
2023-04-26T16:01:51.173Z,1.17
2023-04-26T16:06:53.279Z,1.33
2023-04-26T16:11:55.364Z,1.20
2023-04-26T16:16:58.828Z,0.87
2023-04-26T16:22:00.979Z,1.37
2023-04-26T16:27:02.952Z,1.33
2023-04-26T16:32:04.932Z,1.30
2023-04-26T16:37:07.536Z,1.57
2023-04-26T16:42:09.600Z,1.30
2023-04-26T16:47:11.664Z,1.17
2023-04-26T16:52:13.691Z,1.13
2023-04-26T16:57:15.626Z,1.20
2023-04-26T17:02:17.734Z,1.20
2023-04-26T17:07:19.784Z,1.00
2023-04-26T17:12:22.029Z,1.10
2023-04-26T17:17:23.921Z,1.50
2023-04-26T17:22:25.732Z,1.13
2023-04-26T17:27:27.642Z,1.67
2023-04-26T17:32:29.873Z,1.27
2023-04-26T17:37:31.718Z,1.40
2023-04-26T17:42:33.872Z,1.70
2023-04-26T17:47:35.732Z,1.60
2023-04-26T17:52:38.412Z,1.40
2023-04-26T17:57:40.942Z,1.80
2023-04-26T18:02:43.901Z,1.40
2023-04-26T18:07:46.106Z,1.77
2023-04-26T18:12:48.035Z,1.87
2023-04-26T18:17:49.985Z,1.43
2023-04-26T18:22:51.906Z,2.00
2023-04-26T18:27:53.970Z,1.63
2023-04-26T18:32:56.151Z,1.43
2023-04-26T18:37:58.147Z,1.30
2023-04-26T18:43:00.022Z,2.20
2023-04-26T18:48:01.961Z,2.00
2023-04-26T18:53:03.780Z,1.53
2023-04-26T18:58:05.796Z,1.63
2023-04-26T19:03:07.766Z,1.87
2023-04-26T19:08:09.962Z,1.87
2023-04-26T19:13:11.848Z,1.80
2023-04-26T19:18:13.892Z,2.13
2023-04-26T19:23:15.796Z,2.20
2023-04-26T19:28:20.025Z,2.33
2023-04-26T19:33:26.652Z,1.90
2023-04-26T19:38:44.809Z,2.17
2023-04-26T19:43:47.582Z,1.63
2023-04-26T19:48:49.389Z,1.60
2023-04-26T19:53:51.349Z,1.20
2023-04-26T19:58:53.205Z,1.57
2023-04-26T20:03:55.164Z,1.90
2023-04-26T20:08:57.074Z,2.10
2023-04-26T20:13:58.989Z,1.67
2023-04-26T20:19:01.377Z,1.67
2023-04-26T20:24:03.274Z,1.80
2023-04-26T20:29:05.558Z,1.60
2023-04-26T20:34:07.563Z,1.53
2023-04-26T20:39:12.053Z,1.80
2023-04-26T20:44:13.989Z,2.00
2023-04-26T20:49:15.820Z,1.50
2023-04-26T20:54:17.628Z,1.40
2023-04-26T20:59:19.427Z,2.03
2023-04-26T21:04:22.151Z,1.77
2023-04-26T21:09:24.154Z,1.57
2023-04-26T21:14:26.238Z,1.67
2023-04-26T21:19:28.126Z,1.60
2023-04-26T21:24:30.023Z,1.03
2023-04-26T21:29:34.606Z,1.50
2023-04-26T21:34:37.276Z,1.93
2023-04-26T21:39:39.149Z,2.03
2023-04-26T21:44:41.311Z,1.80
2023-04-26T21:49:43.094Z,1.70
2023-04-26T21:54:44.970Z,1.57
2023-04-26T21:59:46.757Z,1.53
2023-04-26T22:04:48.768Z,1.70
2023-04-26T22:09:50.632Z,1.33
2023-04-26T22:14:52.452Z,1.50
2023-04-26T22:19:55.595Z,1.50
2023-04-26T22:24:57.397Z,1.57
2023-04-26T22:30:04.228Z,1.50
2023-04-26T22:35:11.674Z,2.00
2023-04-26T22:40:16.883Z,1.87
2023-04-26T22:45:18.938Z,1.80
2023-04-26T22:50:20.905Z,1.40
2023-04-26T22:55:22.947Z,1.60
2023-04-26T23:00:25.908Z,1.97
2023-04-26T23:05:28.018Z,2.30
2023-04-26T23:10:30.014Z,1.50
2023-04-26T23:15:32.061Z,1.70
2023-04-26T23:20:34.058Z,2.13
2023-04-26T23:25:36.226Z,1.63
2023-04-26T23:30:38.157Z,1.60
2023-04-26T23:35:43.289Z,2.10
2023-04-26T23:40:45.284Z,1.70
2023-04-26T23:45:47.431Z,1.93
2023-04-26T23:50:49.939Z,1.97
2023-04-26T23:55:51.961Z,1.60
